createdAt,value
2022-08-05T00:03:58.201Z,4.90
2022-08-05T00:09:20.325Z,4.60
2022-08-05T00:15:40.751Z,5.00
2022-08-05T00:20:54.466Z,4.70
2022-08-05T00:26:25.033Z,4.80
2022-08-05T00:32:13.086Z,5.10
2022-08-05T00:37:35.870Z,4.60
2022-08-05T00:43:15.382Z,4.80
2022-08-05T00:48:51.217Z,5.40
2022-08-05T00:54:14.870Z,5.10
2022-08-05T00:59:34.607Z,4.50
2022-08-05T01:05:05.087Z,5.50
2022-08-05T01:10:32.645Z,5.50
2022-08-05T01:15:58.142Z,4.70
2022-08-05T01:22:10.850Z,5.70
2022-08-05T01:28:00.445Z,5.40
2022-08-05T01:33:20.704Z,4.80
2022-08-05T01:38:50.880Z,5.10
2022-08-05T01:44:00.241Z,5.60
2022-08-05T01:50:00.572Z,5.20
2022-08-05T01:55:22.164Z,5.80
2022-08-05T02:00:36.668Z,5.40
2022-08-05T02:05:59.737Z,5.60
2022-08-05T02:11:34.904Z,5.30
2022-08-05T02:16:56.347Z,6.40
2022-08-05T02:22:26.462Z,6.60
2022-08-05T02:27:59.574Z,6.30
2022-08-05T02:33:12.841Z,5.20
2022-08-05T02:38:54.397Z,6.00
2022-08-05T02:44:13.203Z,6.20
2022-08-05T02:49:36.689Z,6.20
2022-08-05T02:54:57.308Z,6.20
2022-08-05T03:00:05.856Z,6.40
2022-08-05T03:05:15.428Z,6.00
2022-08-05T03:10:37.490Z,6.30
2022-08-05T03:15:49.280Z,6.20
2022-08-05T03:21:15.938Z,6.50
2022-08-05T03:26:45.675Z,6.70
2022-08-05T03:32:16.672Z,6.10
2022-08-05T03:37:41.009Z,7.00
2022-08-05T03:43:58.307Z,7.10
2022-08-05T03:49:02.377Z,7.20
2022-08-05T03:55:50.221Z,7.20
2022-08-05T04:00:16.587Z,5.50
2022-08-05T04:05:27.861Z,8.30
2022-08-05T04:10:45.530Z,6.70
2022-08-05T04:16:15.661Z,7.00
2022-08-05T04:22:09.624Z,7.60
2022-08-05T04:27:19.101Z,7.40
2022-08-05T04:32:31.261Z,7.50
2022-08-05T04:38:02.710Z,7.60
2022-08-05T04:43:16.679Z,6.90
2022-08-05T04:48:29.032Z,7.10
2022-08-05T04:53:39.081Z,7.10
2022-08-05T04:58:46.481Z,7.30
2022-08-05T05:03:59.238Z,6.90
2022-08-05T05:09:23.759Z,6.80
2022-08-05T05:14:32.288Z,6.60
2022-08-05T05:19:47.444Z,6.20
2022-08-05T05:25:16.887Z,6.10
2022-08-05T05:30:29.882Z,7.10
2022-08-05T05:35:47.569Z,7.40
2022-08-05T05:40:55.174Z,7.10
2022-08-05T05:46:06.893Z,7.40
2022-08-05T05:51:28.059Z,6.40
2022-08-05T05:56:50.154Z,6.80
2022-08-05T06:02:01.295Z,6.40
2022-08-05T06:07:22.443Z,6.50
2022-08-05T06:12:35.124Z,6.00
2022-08-05T06:17:52.752Z,5.30
2022-08-05T06:23:05.600Z,6.10
2022-08-05T06:28:21.427Z,5.90
2022-08-05T06:34:00.476Z,5.10
2022-08-05T06:38:59.757Z,5.30
2022-08-05T06:44:07.569Z,4.40
2022-08-05T06:49:17.069Z,4.40
2022-08-05T06:54:26.309Z,3.50
2022-08-05T06:59:42.202Z,3.70
2022-08-05T07:04:53.567Z,3.60
2022-08-05T07:10:05.840Z,3.30
2022-08-05T07:16:00.796Z,3.10
2022-08-05T07:21:05.408Z,3.30
2022-08-05T07:26:14.030Z,3.20
2022-08-05T07:31:41.039Z,4.10
2022-08-05T07:36:56.338Z,3.10
2022-08-05T07:42:12.865Z,2.80
2022-08-05T07:47:25.851Z,3.70
2022-08-05T07:52:33.862Z,2.40
2022-08-05T07:57:58.908Z,2.60
2022-08-05T08:03:13.932Z,2.80
2022-08-05T08:08:23.524Z,3.20
2022-08-05T08:13:42.970Z,2.80
2022-08-05T08:18:57.376Z,2.60
2022-08-05T08:24:09.503Z,2.60
2022-08-05T08:30:03.922Z,2.60
2022-08-05T08:34:54.981Z,2.20
2022-08-05T08:40:05.272Z,2.50
2022-08-05T08:45:19.602Z,3.10
2022-08-05T08:51:03.870Z,3.20
2022-08-05T08:56:06.211Z,3.20
2022-08-05T09:01:23.114Z,2.90
2022-08-05T09:06:36.273Z,2.70
2022-08-05T09:11:52.205Z,2.90
2022-08-05T09:17:01.432Z,2.80
2022-08-05T09:22:22.079Z,2.90
2022-08-05T09:28:04.272Z,2.50
2022-08-05T09:33:07.852Z,3.00
2022-08-05T09:38:17.953Z,2.70
2022-08-05T09:43:41.239Z,2.70
2022-08-05T09:49:06.754Z,2.90
2022-08-05T09:54:35.655Z,2.50
2022-08-05T09:59:50.506Z,2.90
2022-08-05T10:05:10.042Z,2.30
2022-08-05T10:10:19.180Z,3.20
2022-08-05T10:15:47.336Z,2.80
2022-08-05T10:20:57.131Z,3.70
2022-08-05T10:26:07.475Z,3.20
2022-08-05T10:32:54.430Z,2.90
2022-08-05T10:36:50.170Z,2.90
2022-08-05T10:42:04.404Z,2.70
2022-08-05T10:47:27.113Z,2.60
2022-08-05T10:58:11.947Z,3.50
2022-08-05T11:03:27.528Z,3.10
2022-08-05T11:09:02.266Z,3.70
2022-08-05T11:14:14.443Z,2.90
2022-08-05T11:20:17.105Z,2.70
2022-08-05T11:26:04.418Z,3.00
2022-08-05T11:31:57.341Z,2.80
2022-08-05T11:36:56.368Z,3.20
2022-08-05T11:42:08.294Z,3.00
2022-08-05T11:47:21.773Z,3.10
2022-08-05T11:52:31.229Z,2.80
2022-08-05T11:58:08.156Z,3.90
2022-08-05T12:03:28.625Z,3.60
2022-08-05T12:08:51.327Z,3.50
2022-08-05T12:14:13.749Z,2.70
2022-08-05T12:20:26.796Z,3.30
2022-08-05T12:24:53.209Z,3.60
2022-08-05T12:30:05.476Z,3.00
2022-08-05T12:35:37.186Z,3.30
2022-08-05T12:40:47.361Z,2.20
2022-08-05T12:46:08.125Z,2.70
2022-08-05T12:52:09.989Z,3.10
2022-08-05T12:56:52.554Z,3.20
2022-08-05T13:02:07.023Z,2.60
2022-08-05T13:07:30.970Z,2.50
2022-08-05T13:12:58.945Z,3.00
2022-08-05T13:18:06.713Z,3.70
2022-08-05T13:23:22.609Z,2.90
2022-08-05T13:28:44.154Z,3.20
2022-08-05T13:34:21.751Z,3.10
2022-08-05T13:39:24.613Z,2.90
2022-08-05T13:44:54.113Z,3.30
2022-08-05T13:50:06.786Z,3.30
2022-08-05T13:55:41.926Z,3.60
2022-08-05T14:00:46.546Z,3.20
2022-08-05T14:06:26.439Z,3.80
2022-08-05T14:11:32.434Z,3.60
2022-08-05T14:17:03.206Z,3.20
2022-08-05T14:22:12.179Z,3.80
2022-08-05T14:27:19.913Z,3.50
2022-08-05T14:32:32.299Z,4.30
2022-08-05T14:37:47.358Z,3.60
2022-08-05T14:42:57.592Z,3.30
2022-08-05T14:48:32.357Z,3.10
2022-08-05T14:54:28.176Z,3.40
2022-08-05T14:59:47.814Z,3.40
2022-08-05T15:05:01.135Z,4.00
2022-08-05T15:10:16.367Z,3.30
2022-08-05T15:15:55.984Z,3.70
2022-08-05T15:20:54.788Z,3.70
2022-08-05T15:26:31.964Z,3.90
2022-08-05T15:31:39.896Z,3.60
2022-08-05T15:36:58.895Z,3.90
2022-08-05T15:42:55.148Z,3.30
2022-08-05T15:47:40.567Z,3.40
2022-08-05T15:52:52.902Z,3.80
2022-08-05T15:58:05.423Z,3.60
2022-08-05T16:03:19.815Z,5.20
2022-08-05T16:08:31.027Z,4.90
2022-08-05T16:13:38.648Z,4.00
2022-08-05T16:18:52.576Z,4.50
2022-08-05T16:24:03.298Z,3.70
2022-08-05T16:29:20.125Z,3.80
2022-08-05T16:34:29.995Z,4.30
2022-08-05T16:40:04.818Z,4.20
2022-08-05T16:46:04.580Z,4.10
2022-08-05T16:50:50.420Z,3.70
2022-08-05T16:55:58.518Z,4.30
2022-08-05T17:01:06.617Z,4.00
2022-08-05T17:06:19.123Z,3.60
2022-08-05T17:11:26.818Z,4.10
2022-08-05T17:16:39.445Z,3.50
2022-08-05T17:21:57.044Z,4.30
2022-08-05T17:27:22.965Z,3.80
2022-08-05T17:32:34.777Z,3.50
2022-08-05T17:37:45.561Z,4.90
2022-08-05T17:42:56.251Z,4.80
2022-08-05T17:48:28.615Z,4.60
2022-08-05T17:53:36.235Z,5.10
2022-08-05T17:58:47.017Z,4.80
2022-08-05T18:03:59.101Z,6.20
2022-08-05T18:09:16.174Z,7.50
2022-08-05T18:14:31.511Z,9.90
2022-08-05T18:20:00.291Z,9.00
2022-08-05T18:25:10.130Z,8.10
2022-08-05T18:30:24.515Z,6.70
2022-08-05T18:36:00.911Z,7.00
2022-08-05T18:41:58.285Z,7.10
2022-08-05T18:46:49.513Z,6.50
2022-08-05T18:52:25.471Z,6.80
2022-08-05T18:58:03.408Z,6.10
2022-08-05T19:03:53.004Z,6.30
2022-08-05T19:09:01.466Z,7.80
2022-08-05T19:14:52.325Z,8.40
2022-08-05T19:19:39.031Z,6.90
2022-08-05T19:24:56.324Z,6.70
2022-08-05T19:30:21.472Z,7.20
2022-08-05T19:35:55.938Z,7.00
2022-08-05T19:41:58.557Z,7.80
2022-08-05T19:47:49.341Z,6.80
2022-08-05T19:54:03.364Z,6.70
2022-08-05T20:00:00.590Z,9.20
2022-08-05T20:05:51.464Z,7.80
2022-08-05T20:18:45.759Z,9.50
2022-08-05T20:24:22.154Z,8.30
2022-08-05T20:30:15.193Z,8.70
2022-08-05T20:35:49.401Z,9.50
2022-08-05T20:41:23.725Z,7.10
2022-08-05T20:46:57.460Z,8.00
2022-08-05T20:52:31.304Z,8.00
2022-08-05T20:58:02.369Z,8.40
2022-08-05T21:03:29.313Z,7.50
2022-08-05T21:09:10.074Z,7.60
2022-08-05T21:20:32.791Z,7.60
2022-08-05T21:25:58.695Z,8.60
2022-08-05T21:31:21.804Z,8.20
2022-08-05T21:36:51.861Z,8.10
2022-08-05T21:42:31.017Z,7.90
2022-08-05T21:48:11.570Z,8.00
2022-08-05T21:53:42.884Z,8.70
2022-08-05T21:59:24.039Z,8.50
2022-08-05T22:04:48.852Z,7.10
2022-08-05T22:10:26.643Z,7.30
2022-08-05T22:16:00.412Z,7.00
2022-08-05T22:21:36.487Z,6.50
2022-08-05T22:27:19.551Z,6.20
2022-08-05T22:32:41.605Z,6.90
2022-08-05T22:38:34.113Z,5.80
2022-08-05T22:43:57.119Z,5.00
2022-08-05T22:50:17.368Z,6.00
2022-08-05T22:55:00.754Z,6.20
2022-08-05T23:00:27.420Z,5.70
2022-08-05T23:05:56.562Z,5.00
2022-08-05T23:11:49.246Z,5.60
2022-08-05T23:17:34.937Z,5.50
2022-08-05T23:22:56.082Z,5.00
2022-08-05T23:28:29.505Z,5.90
2022-08-05T23:34:04.124Z,6.40
2022-08-05T23:39:53.854Z,5.50
2022-08-05T23:45:23.799Z,5.10
2022-08-05T23:50:52.310Z,5.10
2022-08-05T23:56:13.199Z,5.30
